Time;durP1;ratioP1;P1;durP2;ratioP2;P2;SDS_P1;SDS_P2;PMS_P1;PMS_P2;Temp;Humidity;BMP_temperature;BMP_pressure;BME280_temperature;BME280_humidity;BME280_pressure;Samples;Min_cycle;Max_cycle;Signal;HPM_P1;HPM_P2
2022/05/06 00:00:07;;;;;;;52.97;31.95;;;;;;;11.47;80.96;102300.63;4980753;28;20065;-83
2022/05/06 00:02:33;;;;;;;50.40;31.23;;;;;;;11.38;81.17;102292.91;4983226;28;20027;-83
2022/05/06 00:04:59;;;;;;;53.00;31.75;;;;;;;11.40;81.43;102305.25;4984775;28;20021;-83
2022/05/06 00:07:24;;;;;;;53.78;32.17;;;;;;;11.39;81.29;102303.53;4987787;28;20022;-83
2022/05/06 00:09:49;;;;;;;52.75;32.03;;;;;;;11.37;81.64;102304.47;4986433;28;20636;-83
2022/05/06 00:12:17;;;;;;;53.40;31.65;;;;;;;11.32;81.66;102307.28;4986115;28;20034;-83
2022/05/06 00:14:44;;;;;;;50.80;31.50;;;;;;;11.28;82.06;102302.97;4981311;28;20034;-83
2022/05/06 00:17:09;;;;;;;54.20;33.30;;;;;;;11.27;82.12;102305.69;4983508;28;20560;-83
2022/05/06 00:19:34;;;;;;;52.17;32.17;;;;;;;11.25;81.77;102305.75;4987366;28;20031;-83
2022/05/06 00:22:00;;;;;;;54.75;32.65;;;;;;;11.22;82.25;102306.69;4986556;28;20026;-83
2022/05/06 00:24:25;;;;;;;55.55;32.58;;;;;;;11.20;82.40;102308.56;4983175;28;20365;-83
2022/05/06 00:26:51;;;;;;;51.15;31.08;;;;;;;11.13;82.41;102299.00;4987061;28;20365;-83
2022/05/06 00:29:16;;;;;;;52.33;32.67;;;;;;;11.13;82.75;102306.97;4987900;28;20026;-83
2022/05/06 00:31:41;;;;;;;56.33;33.28;;;;;;;11.12;82.63;102307.00;4979166;28;20027;-83
2022/05/06 00:34:08;;;;;;;51.95;32.40;;;;;;;11.08;82.74;102302.72;4982992;28;20112;-83
2022/05/06 00:36:34;;;;;;;54.65;32.55;;;;;;;11.05;83.10;102308.13;4985072;28;20030;-83
2022/05/06 00:38:59;;;;;;;55.10;33.58;;;;;;;10.97;83.32;102301.22;4985998;28;20026;-83
2022/05/06 00:41:24;;;;;;;55.42;33.25;;;;;;;10.91;83.60;102300.53;4983495;28;20034;-83
2022/05/06 00:43:50;;;;;;;55.33;33.28;;;;;;;10.94;83.37;102306.63;4978334;28;20511;-83
2022/05/06 00:46:15;;;;;;;55.97;32.90;;;;;;;10.88;83.56;102301.50;4979655;28;20050;-83
2022/05/06 00:48:44;;;;;;;57.33;32.42;;;;;;;10.86;83.56;102298.00;4977328;28;20069;-83
2022/05/06 00:51:10;;;;;;;52.95;32.65;;;;;;;10.84;83.68;102294.50;4978224;28;20061;-83
2022/05/06 00:53:36;;;;;;;50.85;31.88;;;;;;;10.81;83.57;102299.91;4976484;28;20916;-83
2022/05/06 00:56:03;;;;;;;55.53;32.83;;;;;;;10.79;83.76;102298.25;4977512;28;20052;-83
2022/05/06 00:58:33;;;;;;;52.42;32.15;;;;;;;10.75;83.58;102305.44;4978112;28;20026;-83
2022/05/06 01:00:58;;;;;;;52.35;32.75;;;;;;;10.72;84.42;102308.19;4978563;28;20080;-83
2022/05/06 01:03:23;;;;;;;53.65;32.90;;;;;;;10.63;84.56;102306.66;4978050;28;20484;-83
2022/05/06 01:05:52;;;;;;;58.40;33.63;;;;;;;10.66;84.44;102309.22;4976657;28;20038;-83
2022/05/06 01:08:17;;;;;;;55.30;33.75;;;;;;;10.54;84.75;102298.91;4979423;28;20038;-83
2022/05/06 01:10:43;;;;;;;56.60;34.00;;;;;;;10.56;84.85;102304.19;4975686;28;20045;-83
2022/05/06 01:13:09;;;;;;;52.85;32.38;;;;;;;10.48;85.28;102296.41;4977190;28;20026;-83
2022/05/06 01:15:34;;;;;;;57.78;34.40;;;;;;;10.51;85.51;102296.34;4979063;28;20022;-83
2022/05/06 01:18:00;;;;;;;55.63;34.63;;;;;;;10.51;85.73;102304.31;4978889;28;20038;-83
2022/05/06 01:20:26;;;;;;;58.38;34.63;;;;;;;10.42;86.17;102305.44;4980262;28;20057;-83
2022/05/06 01:22:59;;;;;;;56.67;34.25;;;;;;;10.42;86.05;102313.44;4977146;28;20218;-83
2022/05/06 01:25:26;;;;;;;55.30;35.03;;;;;;;10.38;86.17;102311.78;4986371;28;20027;-83
2022/05/06 01:28:00;;;;;;;56.28;33.83;;;;;;;10.35;86.55;102309.19;4985218;28;20022;-83
2022/05/06 01:30:42;;;;;;;55.83;34.58;;;;;;;10.27;86.70;102311.16;4984388;28;20389;-83
2022/05/06 01:33:10;;;;;;;52.03;33.28;;;;;;;10.23;86.92;102305.00;4982172;28;20023;-83
2022/05/06 01:35:40;;;;;;;60.28;34.78;;;;;;;10.28;86.72;102312.03;4986477;28;20038;-82
2022/05/06 01:38:06;;;;;;;58.20;34.90;;;;;;;10.22;87.02;102313.91;4986881;28;20069;-83
2022/05/06 01:40:38;;;;;;;56.63;34.90;;;;;;;10.21;86.99;102313.97;4986265;28;20022;-83
2022/05/06 01:43:07;;;;;;;53.22;33.88;;;;;;;10.21;87.07;102316.63;4984307;28;20043;-83
2022/05/06 01:45:36;;;;;;;55.65;33.65;;;;;;;10.17;87.04;102312.31;4986858;28;20030;-83
2022/05/06 01:48:03;;;;;;;54.78;34.20;;;;;;;10.10;87.16;102302.72;4985631;28;20042;-84
2022/05/06 01:50:30;;;;;;;58.03;35.55;;;;;;;10.12;87.22;102315.09;4985674;28;20019;-83
2022/05/06 01:52:56;;;;;;;61.25;33.88;;;;;;;10.11;87.34;102315.09;4982117;28;20033;-83
2022/05/06 01:55:23;;;;;;;54.28;34.08;;;;;;;10.07;87.08;102313.44;4981862;28;20472;-83
2022/05/06 01:57:48;;;;;;;59.85;34.75;;;;;;;10.05;87.64;102318.78;4986164;28;20073;-83
2022/05/06 02:00:14;;;;;;;59.75;35.03;;;;;;;9.97;87.71;102313.66;4985595;28;20034;-83
2022/05/06 02:02:39;;;;;;;58.72;33.33;;;;;;;9.98;87.49;102315.41;4982283;28;20041;-82
2022/05/06 02:05:17;;;;;;;53.00;34.38;;;;;;;9.96;87.57;102311.94;4985193;28;20026;-82
2022/05/06 02:07:44;;;;;;;57.25;33.25;;;;;;;9.93;87.37;102314.66;4984535;28;20042;-83
2022/05/06 02:10:10;;;;;;;54.50;33.65;;;;;;;9.87;87.57;102304.19;4990068;28;20026;-82
2022/05/06 02:12:35;;;;;;;53.00;33.33;;;;;;;9.83;87.35;102306.97;4984916;28;20028;-83
2022/05/06 02:15:00;;;;;;;59.05;33.15;;;;;;;9.84;87.58;102304.25;4988531;28;20471;-83
2022/05/06 02:17:25;;;;;;;56.78;34.28;;;;;;;9.85;87.29;102311.31;4989642;28;20037;-82
2022/05/06 02:19:51;;;;;;;57.80;34.17;;;;;;;9.83;87.62;102306.97;4986619;28;20061;-83
2022/05/06 02:22:16;;;;;;;59.05;33.85;;;;;;;9.80;87.46;102313.22;4987736;28;20023;-83
2022/05/06 02:24:42;;;;;;;56.50;35.00;;;;;;;9.72;87.94;102309.84;4987873;28;20045;-83
2022/05/06 02:27:08;;;;;;;55.42;35.65;;;;;;;9.62;88.65;102303.91;4988194;28;20029;-83
2022/05/06 02:29:33;;;;;;;57.72;35.08;;;;;;;9.61;89.22;102299.47;4987599;28;20038;-83
2022/05/06 02:34:42;;;;;;;57.85;35.22;;;;;;;9.60;89.04;102305.69;4988185;28;20105;-83
2022/05/06 02:37:08;;;;;;;55.78;32.83;;;;;;;9.60;88.55;102310.16;4988841;28;20566;-83
2022/05/06 02:39:33;;;;;;;57.47;34.45;;;;;;;9.57;88.25;102307.56;4988661;28;20067;-83
2022/05/06 02:41:58;;;;;;;56.67;33.58;;;;;;;9.58;88.15;102315.50;4987492;28;20213;-83
2022/05/06 02:44:25;;;;;;;54.53;33.88;;;;;;;9.50;88.16;102313.94;4987001;28;20448;-83
2022/05/06 02:46:50;;;;;;;57.70;34.13;;;;;;;9.51;88.85;102313.03;4987883;28;20511;-83
2022/05/06 02:49:16;;;;;;;54.75;33.22;;;;;;;9.47;88.38;102306.91;4987536;28;20058;-83
2022/05/06 02:51:41;;;;;;;53.10;32.45;;;;;;;9.44;88.92;102315.81;4984320;28;20033;-83
2022/05/06 02:54:07;;;;;;;57.00;33.83;;;;;;;9.47;89.07;102320.19;4987789;28;20018;-83
2022/05/06 02:56:33;;;;;;;60.80;35.55;;;;;;;9.51;89.50;102313.03;4989515;28;20026;-83
2022/05/06 02:58:58;;;;;;;60.95;35.47;;;;;;;9.50;89.55;102309.50;4988768;28;20551;-83
2022/05/06 03:01:24;;;;;;;62.28;36.22;;;;;;;9.49;89.73;102313.06;4987702;28;20034;-83
2022/05/06 03:03:51;;;;;;;65.35;36.78;;;;;;;9.55;89.84;102314.72;4987502;28;20026;-83
2022/05/06 03:06:17;;;;;;;66.65;36.75;;;;;;;9.59;90.12;102319.03;4990049;28;20379;-83
2022/05/06 03:08:42;;;;;;;67.55;38.05;;;;;;;9.54;90.66;102316.50;4987000;28;20034;-83
2022/05/06 03:11:08;;;;;;;64.05;36.17;;;;;;;9.57;90.23;102321.75;4982794;28;20432;-83
2022/05/06 03:13:34;;;;;;;63.47;35.90;;;;;;;9.62;90.35;102329.59;4984706;28;20034;-83
2022/05/06 03:15:59;;;;;;;67.55;35.22;;;;;;;9.58;90.30;102317.31;4988479;28;20382;-82
2022/05/06 03:18:26;;;;;;;67.18;35.58;;;;;;;9.57;90.53;102319.09;4986789;28;20026;-83
2022/05/06 03:20:51;;;;;;;63.70;35.53;;;;;;;9.62;90.85;102317.19;4987208;28;20112;-83
2022/05/06 03:23:16;;;;;;;61.47;35.20;;;;;;;9.66;90.44;102318.88;4981956;28;20038;-82
2022/05/06 03:25:42;;;;;;;63.60;34.75;;;;;;;9.68;90.36;102318.81;4986107;28;20045;-82
2022/05/06 03:28:07;;;;;;;63.30;34.85;;;;;;;9.61;90.29;102315.41;4988569;28;20408;-83
2022/05/06 03:30:44;;;;;;;63.45;34.35;;;;;;;9.60;90.50;102321.66;4989009;28;20023;-82
2022/05/06 03:33:13;;;;;;;61.25;33.40;;;;;;;9.62;90.64;102314.53;4986037;28;20049;-83
2022/05/06 03:35:39;;;;;;;61.45;34.45;;;;;;;9.59;90.59;102314.59;4987375;28;20038;-83
2022/05/06 03:38:05;;;;;;;61.45;33.58;;;;;;;9.64;90.51;102325.13;4986896;28;20026;-83
2022/05/06 03:40:32;;;;;;;58.55;32.58;;;;;;;9.62;90.64;102316.31;4987321;28;20431;-83
2022/05/06 03:42:58;;;;;;;58.22;32.65;;;;;;;9.67;90.32;102323.25;4984766;28;20496;-83
2022/05/06 03:45:23;;;;;;;55.55;32.80;;;;;;;9.70;90.28;102319.66;4986459;28;20038;-83
2022/05/06 03:47:49;;;;;;;59.30;32.17;;;;;;;9.65;89.94;102313.56;4985364;28;20042;-82
2022/05/06 03:52:58;;;;;;;53.83;31.02;;;;;;;9.60;90.19;102321.66;4985224;28;20089;-83
2022/05/06 03:55:24;;;;;;;58.30;33.28;;;;;;;9.64;90.25;102325.13;4988684;28;20034;-83
2022/05/06 03:57:49;;;;;;;57.03;32.95;;;;;;;9.69;90.47;102324.09;4988810;28;20019;-83
2022/05/06 04:00:16;;;;;;;57.28;32.38;;;;;;;9.73;90.12;102323.09;4989618;28;20029;-83
2022/05/06 04:02:42;;;;;;;65.65;30.63;;;;;;;9.74;89.74;102326.66;4989305;28;20057;-83
2022/05/06 04:05:08;;;;;;;56.30;30.60;;;;;;;9.60;89.62;102319.00;4983320;28;20121;-83
2022/05/06 04:07:33;;;;;;;60.20;31.23;;;;;;;9.66;89.73;102333.94;4989472;28;20121;-81
2022/05/06 04:09:59;;;;;;;65.13;29.98;;;;;;;9.57;89.82;102319.09;4989134;28;20033;-82
2022/05/06 04:12:24;;;;;;;52.92;29.45;;;;;;;9.62;89.91;102329.59;4987178;28;20034;-81
2022/05/06 04:14:50;;;;;;;50.30;29.45;;;;;;;9.61;90.08;102338.47;4987648;28;20141;-82
2022/05/06 04:17:16;;;;;;;56.20;28.83;;;;;;;9.56;89.70;102343.03;4989074;28;20026;-82
2022/05/06 04:23:28;;;;;;;56.40;30.58;;;;;;;9.57;89.90;102328.81;4987505;28;20407;-82
2022/05/06 04:25:15;;;;;;;51.67;30.13;;;;;;;9.68;89.67;102343.63;4979608;28;20054;-82
2022/05/06 04:27:41;;;;;;;47.22;28.30;;;;;;;9.72;89.53;102347.09;4986969;28;20098;-82
2022/05/06 04:30:07;;;;;;;54.08;29.95;;;;;;;9.63;89.32;102340.19;4988431;28;20464;-83
2022/05/06 04:32:32;;;;;;;72.90;28.88;;;;;;;9.54;89.55;102343.06;4984063;28;20027;-82
2022/05/06 04:34:58;;;;;;;61.60;28.00;;;;;;;9.51;89.66;102352.91;4987592;28;20418;-82
2022/05/06 04:37:23;;;;;;;55.75;27.70;;;;;;;9.43;90.02;102345.97;4988219;28;20081;-82
2022/05/06 04:39:48;;;;;;;72.55;28.20;;;;;;;9.39;90.07;102344.28;4987639;28;20097;-82
2022/05/06 04:42:15;;;;;;;59.22;26.15;;;;;;;9.35;90.17;102336.41;4985154;28;20456;-82
2022/05/06 04:44:40;;;;;;;55.05;26.38;;;;;;;9.41;90.48;102352.22;4974976;28;20027;-82
2022/05/06 04:47:06;;;;;;;50.95;27.92;;;;;;;9.45;89.69;102344.16;4986627;28;20027;-82
2022/05/06 04:49:31;;;;;;;51.42;26.80;;;;;;;9.46;89.84;102348.56;4977156;28;20487;-82
2022/05/06 04:51:56;;;;;;;48.38;25.40;;;;;;;9.56;89.61;102359.84;4981249;28;20134;-83
2022/05/06 04:54:21;;;;;;;50.50;26.20;;;;;;;9.52;89.67;102354.63;4981911;28;20076;-82
2022/05/06 04:56:48;;;;;;;50.50;26.08;;;;;;;9.50;89.75;102367.97;4987756;28;20469;-82
2022/05/06 04:59:13;;;;;;;56.58;27.17;;;;;;;9.48;89.70;102365.31;4985009;28;20026;-82
2022/05/06 05:01:39;;;;;;;59.03;26.27;;;;;;;9.44;89.51;102352.16;4984461;28;20077;-82
2022/05/06 05:04:04;;;;;;;45.03;25.73;;;;;;;9.53;89.87;102361.69;4972891;28;20030;-82
2022/05/06 05:06:31;;;;;;;47.72;25.73;;;;;;;9.50;89.76;102357.34;4984460;28;20030;-82
2022/05/06 05:08:56;;;;;;;41.88;25.83;;;;;;;9.59;89.79;102367.75;4982933;28;20038;-82
2022/05/06 05:11:22;;;;;;;51.40;24.83;;;;;;;9.59;89.29;102369.53;4986057;28;20038;-82
2022/05/06 05:13:47;;;;;;;44.35;25.75;;;;;;;9.63;89.08;102372.09;4986116;28;20015;-82
2022/05/06 05:16:12;;;;;;;49.20;25.42;;;;;;;9.65;89.21;102380.91;4969085;28;20038;-82
2022/05/06 05:18:38;;;;;;;46.60;25.20;;;;;;;9.58;89.17;102376.66;4986608;28;20066;-82
2022/05/06 05:21:03;;;;;;;48.75;25.67;;;;;;;9.56;89.65;102367.81;4984663;28;20081;-82
2022/05/06 05:23:29;;;;;;;41.92;25.20;;;;;;;9.65;89.42;102370.25;4987552;28;20014;-82
2022/05/06 05:25:54;;;;;;;55.90;24.67;;;;;;;9.67;88.88;102376.44;4986675;28;20077;-83
2022/05/06 05:28:19;;;;;;;40.30;24.15;;;;;;;9.69;88.90;102382.59;4987824;28;20027;-82
2022/05/06 05:30:45;;;;;;;43.15;23.85;;;;;;;9.73;88.92;102380.72;4985596;28;20041;-83
2022/05/06 05:33:10;;;;;;;42.72;23.58;;;;;;;9.87;88.40;102381.31;4986980;28;20030;-83
2022/05/06 05:35:38;;;;;;;37.78;23.08;;;;;;;9.94;88.05;102388.22;4987400;28;20034;-81
2022/05/06 05:38:03;;;;;;;38.55;23.70;;;;;;;10.01;87.76;102382.75;4984830;28;20766;-83
2022/05/06 05:40:29;;;;;;;41.53;21.92;;;;;;;9.96;86.86;102381.09;4982806;28;20057;-84
2022/05/06 05:42:54;;;;;;;52.88;23.75;;;;;;;9.86;87.39;102389.31;4989145;28;20054;-82
2022/05/06 05:48:22;;;;;;;;;;;;;;;10.03;86.28;102386.25;4989582;28;20109;-81
2022/05/06 05:50:48;;;;;;;34.25;21.20;;;;;;;9.91;86.41;102388.31;4976496;28;19921;-82
2022/05/06 05:53:14;;;;;;;34.63;21.55;;;;;;;9.95;86.63;102387.31;4991623;28;20063;-82
2022/05/06 05:55:39;;;;;;;38.72;21.73;;;;;;;9.92;86.77;102381.19;4986176;28;20030;-82
2022/05/06 05:58:04;;;;;;;40.97;22.63;;;;;;;9.97;86.86;102379.28;4985758;28;20558;-82
2022/05/06 06:00:30;;;;;;;36.45;22.58;;;;;;;10.07;86.49;102391.44;4982675;28;20029;-84
2022/05/06 06:02:56;;;;;;;36.55;21.65;;;;;;;10.19;86.40;102390.28;4989108;28;20027;-84
2022/05/06 06:05:22;;;;;;;45.70;25.08;;;;;;;10.23;86.08;102399.94;4990177;28;20359;-83
2022/05/06 06:07:47;;;;;;;36.42;22.00;;;;;;;10.21;86.33;102388.47;4986743;28;20072;-83
2022/05/06 06:10:13;;;;;;;38.53;24.23;;;;;;;10.27;86.20;102395.44;4986106;28;20101;-84
2022/05/06 06:12:39;;;;;;;39.60;24.63;;;;;;;10.32;85.91;102381.09;4989155;28;20038;-84
2022/05/06 06:15:05;;;;;;;36.90;22.02;;;;;;;10.38;85.77;102391.63;4985640;28;20583;-84
2022/05/06 06:17:30;;;;;;;34.35;22.20;;;;;;;10.42;85.44;102382.63;4985931;28;20022;-84
2022/05/06 06:19:56;;;;;;;34.25;21.48;;;;;;;10.57;85.05;102389.34;4989191;28;20030;-84
2022/05/06 06:22:21;;;;;;;29.40;19.25;;;;;;;10.66;84.15;102393.56;4981781;28;20389;-84
2022/05/06 06:24:46;;;;;;;27.73;18.90;;;;;;;10.70;83.63;102389.88;4988261;28;20022;-84
2022/05/06 06:27:12;;;;;;;36.15;18.50;;;;;;;10.64;82.76;102392.72;4988497;28;20453;-84
2022/05/06 06:29:37;;;;;;;27.50;18.58;;;;;;;10.77;82.61;102395.94;4986755;28;20029;-84
2022/05/06 06:32:03;;;;;;;29.23;18.80;;;;;;;10.81;82.90;102395.81;4986283;28;20362;-84
2022/05/06 06:34:28;;;;;;;30.65;18.80;;;;;;;10.90;82.86;102395.56;4990027;28;20365;-85
2022/05/06 06:36:53;;;;;;;33.58;20.27;;;;;;;10.96;82.26;102389.19;4987554;28;20030;-85
2022/05/06 06:39:18;;;;;;;32.03;20.30;;;;;;;11.03;82.16;102382.75;4988867;28;20038;-84
2022/05/06 06:41:44;;;;;;;32.85;20.63;;;;;;;11.04;82.01;102389.88;4987947;28;20379;-84
2022/05/06 06:44:09;;;;;;;31.27;20.15;;;;;;;11.11;81.83;102380.75;4987210;28;20026;-83
2022/05/06 06:46:34;;;;;;;33.95;20.35;;;;;;;11.32;80.76;102392.59;4990238;28;20018;-82
2022/05/06 06:49:00;;;;;;;33.38;20.35;;;;;;;11.47;80.69;102386.81;4986191;28;20058;-83
2022/05/06 06:51:25;;;;;;;36.10;21.42;;;;;;;11.56;79.74;102390.97;4988411;28;20042;-83
2022/05/06 06:53:53;;;;;;;34.25;20.58;;;;;;;11.60;79.52;102394.44;4979477;28;20023;-83
2022/05/06 06:56:19;;;;;;;33.95;21.70;;;;;;;11.65;79.27;102395.16;4986206;28;20132;-83
2022/05/06 06:58:44;;;;;;;41.95;24.23;;;;;;;11.73;79.18;102398.47;4987101;28;20490;-83
2022/05/06 07:01:11;;;;;;;36.33;23.52;;;;;;;11.80;78.96;102404.50;4992852;28;20396;-96
2022/05/06 07:14:05;;;;;;;38.90;23.63;;;;;;;12.70;75.94;102412.22;5203353;23;20061;-96
2022/05/06 07:16:30;;;;;;;41.05;25.33;;;;;;;12.68;76.13;102403.41;5597400;23;20050;-96
2022/05/06 07:18:56;;;;;;;38.47;24.27;;;;;;;12.87;75.88;102417.84;5264708;23;20073;-96
2022/05/06 07:21:21;;;;;;;40.28;25.65;;;;;;;12.54;75.61;102387.88;5048489;23;20046;-96
2022/05/06 07:28:57;;;;;;;43.72;26.60;;;;;;;12.82;76.00;102427.81;5167832;23;21034;-96
2022/05/06 07:31:22;;;;;;;42.15;26.90;;;;;;;12.94;75.64;102432.72;5010957;28;20084;-92
2022/05/06 07:36:19;;;;;;;40.22;25.80;;;;;;;12.89;74.91;102386.59;5324232;23;20083;-96
2022/05/06 07:38:45;;;;;;;43.72;26.80;;;;;;;13.01;74.89;102397.78;4993691;28;20480;-96
2022/05/06 07:41:10;;;;;;;40.45;25.63;;;;;;;13.03;74.28;102388.75;5488088;23;20096;-96
2022/05/06 07:43:36;;;;;;;43.85;26.40;;;;;;;13.30;74.46;102437.72;5004548;28;20465;-96
2022/05/06 07:46:01;;;;;;;46.35;28.45;;;;;;;13.40;73.93;102433.78;4990082;28;20030;-95
2022/05/06 07:48:27;;;;;;;42.03;26.13;;;;;;;13.64;73.41;102431.97;4990873;28;20075;-94
2022/05/06 07:50:52;;;;;;;42.45;26.33;;;;;;;13.75;72.48;102444.06;4998250;28;20062;-94
2022/05/06 07:53:19;;;;;;;44.55;26.00;;;;;;;13.73;72.51;102460.19;4999013;28;20538;-96
2022/05/06 07:55:44;;;;;;;40.90;24.52;;;;;;;13.78;72.19;102452.84;5001651;28;20161;-96
2022/05/06 07:58:10;;;;;;;37.65;24.45;;;;;;;13.80;72.15;102453.66;4991741;28;20089;-95
2022/05/06 08:00:36;;;;;;;38.85;25.05;;;;;;;13.54;72.38;102446.63;5000024;28;20045;-96
2022/05/06 08:05:47;;;;;;;42.63;26.30;;;;;;;13.54;72.57;102457.31;5008137;28;20076;-94
2022/05/06 08:08:13;;;;;;;37.00;24.05;;;;;;;13.64;72.18;102463.22;4993351;28;20030;-90
2022/05/06 08:10:38;;;;;;;39.80;25.88;;;;;;;13.56;72.08;102460.81;4989789;28;20034;-92
2022/05/06 08:13:05;;;;;;;41.90;25.08;;;;;;;13.32;72.80;102472.44;5006139;28;20023;-93
2022/05/06 08:15:30;;;;;;;40.03;25.85;;;;;;;13.25;73.43;102471.78;4987950;28;20030;-92
2022/05/06 08:17:55;;;;;;;39.95;25.63;;;;;;;13.25;73.27;102476.25;5005286;28;20032;-92
2022/05/06 08:20:21;;;;;;;37.15;25.58;;;;;;;13.36;73.75;102458.00;4998182;28;20118;-91
2022/05/06 08:22:46;;;;;;;42.53;27.05;;;;;;;13.27;73.52;102469.06;5003628;28;20037;-93
2022/05/06 08:25:12;;;;;;;43.83;26.80;;;;;;;13.48;73.02;102467.38;4994121;28;20018;-93
2022/05/06 08:27:39;;;;;;;47.50;29.13;;;;;;;13.43;72.92;102465.75;5005501;28;20069;-93
2022/05/06 08:30:06;;;;;;;47.05;28.52;;;;;;;13.53;73.01;102468.94;4993989;28;20060;-93
2022/05/06 08:32:31;;;;;;;44.40;29.02;;;;;;;13.61;72.58;102464.19;4974010;28;20432;-94
2022/05/06 08:34:56;;;;;;;48.92;29.40;;;;;;;13.68;72.94;102456.81;4997574;28;20030;-92
2022/05/06 08:37:22;;;;;;;46.72;29.08;;;;;;;13.69;72.22;102454.06;5005262;28;20018;-93
2022/05/06 08:39:47;;;;;;;46.60;28.75;;;;;;;13.76;72.12;102454.72;5007610;28;20026;-92
2022/05/06 08:42:18;;;;;;;48.53;28.35;;;;;;;14.04;71.75;102459.84;4992955;28;20054;-92
2022/05/06 08:53:01;;;;;;;45.55;28.35;;;;;;;15.22;67.95;102454.06;5006880;28;20040;-92
2022/05/06 08:55:26;;;;;;;47.17;29.40;;;;;;;15.62;66.01;102450.41;4995424;28;20480;-92
2022/05/06 08:57:52;;;;;;;42.72;26.88;;;;;;;15.89;65.21;102456.34;4997646;28;20026;-91
2022/05/06 09:00:22;;;;;;;44.97;28.02;;;;;;;16.22;64.53;102452.94;4987700;28;20037;-93
2022/05/06 09:02:48;;;;;;;48.10;28.55;;;;;;;16.72;61.93;102458.50;4995000;28;20105;-94
2022/05/06 09:05:17;;;;;;;41.05;26.77;;;;;;;18.20;59.25;102451.44;5005675;28;20105;-94
2022/05/06 09:07:58;;;;;;;40.63;26.38;;;;;;;19.70;56.72;102436.97;4991363;28;20053;-96
2022/05/06 09:10:24;;;;;;;37.92;26.02;;;;;;;21.56;49.59;102442.34;4989838;28;20097;-92
2022/05/06 09:12:52;;;;;;;41.72;25.58;;;;;;;22.82;45.64;102441.97;4991815;28;20081;-91
2022/05/06 09:18:03;;;;;;;;;;;;;;;24.07;49.85;102439.22;5004270;28;20044;-92
2022/05/06 09:20:28;;;;;;;36.88;24.55;;;;;;;23.89;41.71;102435.31;4979778;28;19930;-92
2022/05/06 09:22:55;;;;;;;40.55;26.02;;;;;;;24.76;40.91;102445.19;4966524;28;20030;-91
2022/05/06 09:25:40;;;;;;;38.75;25.67;;;;;;;25.95;39.99;102432.91;4992750;28;20023;-92
2022/05/06 09:28:09;;;;;;;35.03;24.30;;;;;;;26.36;35.86;102430.94;4978070;28;20029;-93
2022/05/06 09:30:36;;;;;;;35.50;24.98;;;;;;;26.89;35.60;102431.38;4981365;28;20571;-92
2022/05/06 09:33:01;;;;;;;35.33;24.67;;;;;;;27.18;33.93;102428.63;4982459;28;20098;-91
2022/05/06 09:35:28;;;;;;;35.15;23.42;;;;;;;27.38;32.82;102437.63;5004186;28;20117;-92
2022/05/06 09:37:53;;;;;;;33.20;23.85;;;;;;;27.74;33.58;102430.41;5001724;28;20030;-92
2022/05/06 09:40:20;;;;;;;34.60;23.98;;;;;;;28.03;32.38;102426.63;4991849;28;20034;-91
2022/05/06 09:42:54;;;;;;;32.65;24.20;;;;;;;28.32;32.09;102434.66;5008241;28;20053;-95
2022/05/06 09:45:33;;;;;;;31.10;23.20;;;;;;;29.27;33.87;102424.84;4999127;28;20038;-93
2022/05/06 09:48:01;;;;;;;31.40;24.58;;;;;;;29.76;30.15;102428.69;5009213;28;20506;-91
2022/05/06 09:50:36;;;;;;;32.70;23.70;;;;;;;29.88;30.51;102422.88;4992303;28;20033;-91
2022/05/06 09:53:08;;;;;;;28.85;21.33;;;;;;;29.94;30.31;102431.31;4980382;28;20033;-95
2022/05/06 09:55:35;;;;;;;27.60;20.38;;;;;;;30.37;29.23;102423.88;5003998;28;20031;-88
2022/05/06 09:58:01;;;;;;;30.83;22.20;;;;;;;30.52;27.63;102421.31;4995043;28;20376;-91
2022/05/06 10:00:27;;;;;;;29.05;22.02;;;;;;;30.80;27.97;102423.72;4989387;28;20031;-94
2022/05/06 10:02:56;;;;;;;26.60;20.63;;;;;;;30.86;27.09;102423.03;5000254;28;20058;-94
2022/05/06 10:05:24;;;;;;;26.80;20.65;;;;;;;31.37;26.31;102427.25;4995841;28;20015;-94
2022/05/06 10:07:55;;;;;;;27.05;20.95;;;;;;;31.57;26.29;102422.19;5002284;28;20033;-96
2022/05/06 10:10:25;;;;;;;30.08;21.70;;;;;;;31.63;26.52;102420.59;4992135;28;20050;-92
2022/05/06 10:12:54;;;;;;;24.63;19.48;;;;;;;31.72;25.10;102417.63;5000089;28;20306;-96
2022/05/06 10:15:25;;;;;;;24.33;18.42;;;;;;;32.11;25.69;102407.66;4993812;28;20485;-94
2022/05/06 10:17:54;;;;;;;24.83;19.00;;;;;;;32.20;25.95;102412.91;4986024;28;20038;-91
2022/05/06 10:20:47;;;;;;;27.67;19.88;;;;;;;32.88;27.00;102421.31;4991244;28;20530;-91
2022/05/06 10:23:15;;;;;;;27.13;19.85;;;;;;;32.76;23.95;102417.31;4984390;28;20022;-91
2022/05/06 10:25:40;;;;;;;21.95;18.48;;;;;;;33.04;23.66;102426.72;5002884;28;20042;-92
2022/05/06 10:34:15;;;;;;;20.33;17.05;;;;;;;33.36;24.33;102416.31;5011155;28;20041;-95
2022/05/06 10:36:45;;;;;;;20.30;16.70;;;;;;;33.33;23.51;102414.81;4992191;28;20061;-92
2022/05/06 10:39:34;;;;;;;20.80;17.75;;;;;;;33.44;24.04;102410.72;4988946;28;20248;-92
2022/05/06 10:42:09;;;;;;;23.13;17.95;;;;;;;34.18;23.03;102403.16;4994441;28;20056;-93
2022/05/06 10:44:48;;;;;;;20.23;15.73;;;;;;;35.01;22.66;102388.81;5007460;28;20030;-93
2022/05/06 10:47:16;;;;;;;19.20;15.30;;;;;;;35.06;21.13;102398.22;4992609;28;20121;-92
2022/05/06 10:49:46;;;;;;;19.45;16.40;;;;;;;34.67;20.58;102396.84;4982720;28;20149;-91
2022/05/06 10:52:14;;;;;;;18.80;16.77;;;;;;;34.53;21.43;102394.16;4992747;28;20049;-89
2022/05/06 10:54:40;;;;;;;18.60;16.00;;;;;;;34.89;21.14;102392.09;5000450;28;20030;-94
2022/05/06 10:57:06;;;;;;;21.73;15.73;;;;;;;35.23;20.55;102390.44;5006315;28;20023;-91
2022/05/06 10:59:54;;;;;;;21.40;16.13;;;;;;;36.03;22.01;102390.81;4986670;28;20108;-91
2022/05/06 11:02:36;;;;;;;19.35;15.27;;;;;;;36.38;21.85;102380.41;4997772;28;20125;-95
2022/05/06 11:05:06;;;;;;;17.40;15.10;;;;;;;36.58;19.93;102388.78;4978828;28;20025;-93
2022/05/06 11:07:34;;;;;;;17.38;14.07;;;;;;;36.45;19.17;102380.44;5008670;28;20048;-92
2022/05/06 11:10:07;;;;;;;16.55;14.52;;;;;;;36.64;19.94;102379.59;4992740;28;20031;-91
2022/05/06 11:12:40;;;;;;;14.98;13.32;;;;;;;36.10;19.62;102375.03;5003718;28;20033;-92
2022/05/06 11:15:08;;;;;;;12.82;10.68;;;;;;;35.50;18.78;102376.78;4991239;28;20026;-94
2022/05/06 11:17:34;;;;;;;11.93;10.07;;;;;;;36.16;19.36;102371.41;5002767;28;20050;-94
2022/05/06 11:20:14;;;;;;;10.48;9.38;;;;;;;36.25;18.93;102375.72;4991369;28;20065;-95
2022/05/06 11:22:51;;;;;;;10.80;9.23;;;;;;;37.38;19.14;102367.28;5006150;28;20076;-94
2022/05/06 11:25:17;;;;;;;11.73;9.63;;;;;;;37.28;17.67;102366.88;4996543;28;20399;-94
2022/05/06 11:27:42;;;;;;;10.13;8.98;;;;;;;37.68;17.06;102364.81;5000716;28;20037;-91
2022/05/06 11:30:09;;;;;;;12.70;10.20;;;;;;;37.27;17.24;102367.94;4996586;28;20432;-92
2022/05/06 11:32:35;;;;;;;11.45;10.27;;;;;;;37.53;17.80;102364.22;4976198;28;20535;-93
2022/05/06 11:35:09;;;;;;;12.95;11.65;;;;;;;37.23;18.50;102367.53;5007028;28;20030;-94
2022/05/06 11:37:39;;;;;;;11.25;10.15;;;;;;;36.92;17.79;102362.69;4997866;28;20030;-94
2022/05/06 11:42:49;;;;;;;12.95;10.50;;;;;;;37.35;18.45;102348.25;4992632;28;20131;-93
2022/05/06 11:48:05;;;;;;;11.00;9.90;;;;;;;37.76;17.16;102347.03;4988296;28;20045;-93
2022/05/06 11:50:32;;;;;;;11.48;8.75;;;;;;;38.04;16.66;102346.63;4997012;28;20049;-90
2022/05/06 11:52:59;;;;;;;8.10;7.30;;;;;;;37.49;16.04;102344.38;5006844;28;20026;-92
2022/05/06 11:55:25;;;;;;;8.98;7.82;;;;;;;37.66;15.98;102341.09;5002740;28;20056;-92
2022/05/06 11:57:51;;;;;;;9.00;8.07;;;;;;;37.75;16.11;102336.97;4996580;28;20057;-94
2022/05/06 12:00:17;;;;;;;8.73;7.32;;;;;;;36.87;16.20;102332.81;4981067;28;20306;-93
2022/05/06 12:02:50;;;;;;;9.98;8.75;;;;;;;37.08;17.33;102331.72;4998255;28;20460;-93
2022/05/06 12:05:16;;;;;;;9.80;8.43;;;;;;;37.54;17.15;102333.47;4998064;28;20022;-92